sensor_id;sensor_type;location;lat;lon;timestamp;P1;durP1;ratioP1;P2;durP2;ratioP2
59105;SDS011;44891;50.204;8.132;2022-07-11T00:01:45;6.68;;;6.00;;
59105;SDS011;44891;50.204;8.132;2022-07-11T00:05:48;6.85;;;6.18;;
59105;SDS011;44891;50.204;8.132;2022-07-11T00:09:50;6.97;;;6.32;;
59105;SDS011;44891;50.204;8.132;2022-07-11T00:13:52;6.60;;;6.00;;
59105;SDS011;44891;50.204;8.132;2022-07-11T00:17:54;6.60;;;6.00;;
59105;SDS011;44891;50.204;8.132;2022-07-11T00:21:59;6.30;;;5.70;;
59105;SDS011;44891;50.204;8.132;2022-07-11T00:26:01;6.28;;;5.65;;
59105;SDS011;44891;50.204;8.132;2022-07-11T00:30:03;5.93;;;5.43;;
59105;SDS011;44891;50.204;8.132;2022-07-11T00:34:06;7.00;;;6.40;;
59105;SDS011;44891;50.204;8.132;2022-07-11T00:38:09;6.88;;;6.22;;
59105;SDS011;44891;50.204;8.132;2022-07-11T00:42:13;6.40;;;5.80;;
59105;SDS011;44891;50.204;8.132;2022-07-11T00:46:18;6.30;;;5.70;;
59105;SDS011;44891;50.204;8.132;2022-07-11T00:50:20;6.43;;;5.80;;
59105;SDS011;44891;50.204;8.132;2022-07-11T00:54:23;6.25;;;5.65;;
59105;SDS011;44891;50.204;8.132;2022-07-11T00:58:26;6.55;;;5.95;;
59105;SDS011;44891;50.204;8.132;2022-07-11T01:02:28;12.23;;;6.20;;
59105;SDS011;44891;50.204;8.132;2022-07-11T01:06:30;6.82;;;6.10;;
59105;SDS011;44891;50.204;8.132;2022-07-11T01:10:34;6.43;;;5.80;;
59105;SDS011;44891;50.204;8.132;2022-07-11T01:14:36;6.30;;;5.70;;
59105;SDS011;44891;50.204;8.132;2022-07-11T01:18:38;7.57;;;6.03;;
59105;SDS011;44891;50.204;8.132;2022-07-11T01:22:43;6.50;;;5.88;;
59105;SDS011;44891;50.204;8.132;2022-07-11T01:26:49;6.60;;;5.97;;
59105;SDS011;44891;50.204;8.132;2022-07-11T01:30:52;7.00;;;6.30;;
59105;SDS011;44891;50.204;8.132;2022-07-11T01:34:55;6.93;;;6.22;;
59105;SDS011;44891;50.204;8.132;2022-07-11T01:38:57;6.53;;;5.75;;
59105;SDS011;44891;50.204;8.132;2022-07-11T01:43:00;6.28;;;5.68;;
59105;SDS011;44891;50.204;8.132;2022-07-11T01:47:02;6.43;;;5.82;;
59105;SDS011;44891;50.204;8.132;2022-07-11T01:51:05;7.07;;;6.20;;
59105;SDS011;44891;50.204;8.132;2022-07-11T01:55:08;6.50;;;5.90;;
59105;SDS011;44891;50.204;8.132;2022-07-11T01:59:13;6.78;;;6.07;;
59105;SDS011;44891;50.204;8.132;2022-07-11T02:03:15;7.68;;;6.35;;
59105;SDS011;44891;50.204;8.132;2022-07-11T02:07:18;6.78;;;6.07;;
59105;SDS011;44891;50.204;8.132;2022-07-11T02:15:44;7.70;;;6.38;;
59105;SDS011;44891;50.204;8.132;2022-07-11T02:19:47;6.18;;;5.57;;
59105;SDS011;44891;50.204;8.132;2022-07-11T02:23:49;6.68;;;6.05;;
59105;SDS011;44891;50.204;8.132;2022-07-11T02:27:51;7.10;;;6.25;;
59105;SDS011;44891;50.204;8.132;2022-07-11T02:31:54;7.07;;;5.85;;
59105;SDS011;44891;50.204;8.132;2022-07-11T02:35:57;6.45;;;5.85;;
59105;SDS011;44891;50.204;8.132;2022-07-11T02:40:00;6.20;;;5.70;;
59105;SDS011;44891;50.204;8.132;2022-07-11T02:44:03;7.32;;;5.80;;
59105;SDS011;44891;50.204;8.132;2022-07-11T02:48:06;6.80;;;6.10;;
59105;SDS011;44891;50.204;8.132;2022-07-11T02:52:09;7.05;;;5.80;;
59105;SDS011;44891;50.204;8.132;2022-07-11T02:56:11;8.27;;;6.25;;
59105;SDS011;44891;50.204;8.132;2022-07-11T03:00:14;7.28;;;6.00;;
59105;SDS011;44891;50.204;8.132;2022-07-11T03:04:19;6.60;;;5.90;;
59105;SDS011;44891;50.204;8.132;2022-07-11T03:08:21;6.68;;;6.07;;
59105;SDS011;44891;50.204;8.132;2022-07-11T03:12:24;7.85;;;6.18;;
59105;SDS011;44891;50.204;8.132;2022-07-11T03:16:26;8.43;;;6.50;;
59105;SDS011;44891;50.204;8.132;2022-07-11T03:20:29;6.97;;;6.20;;
59105;SDS011;44891;50.204;8.132;2022-07-11T03:24:32;6.32;;;5.65;;
59105;SDS011;44891;50.204;8.132;2022-07-11T03:28:34;6.47;;;5.75;;
59105;SDS011;44891;50.204;8.132;2022-07-11T03:32:36;6.75;;;5.90;;
59105;SDS011;44891;50.204;8.132;2022-07-11T03:36:39;6.25;;;5.65;;
59105;SDS011;44891;50.204;8.132;2022-07-11T03:40:41;9.88;;;6.30;;
59105;SDS011;44891;50.204;8.132;2022-07-11T03:44:43;6.55;;;5.93;;
59105;SDS011;44891;50.204;8.132;2022-07-11T03:48:45;6.25;;;5.47;;
59105;SDS011;44891;50.204;8.132;2022-07-11T03:52:49;7.18;;;5.72;;
59105;SDS011;44891;50.204;8.132;2022-07-11T03:56:51;6.78;;;5.82;;
59105;SDS011;44891;50.204;8.132;2022-07-11T04:00:53;7.55;;;6.30;;
59105;SDS011;44891;50.204;8.132;2022-07-11T04:04:55;6.25;;;5.65;;
59105;SDS011;44891;50.204;8.132;2022-07-11T04:08:58;6.90;;;5.70;;
59105;SDS011;44891;50.204;8.132;2022-07-11T04:13:00;8.80;;;5.97;;
59105;SDS011;44891;50.204;8.132;2022-07-11T04:17:02;6.50;;;5.82;;
59105;SDS011;44891;50.204;8.132;2022-07-11T04:21:05;6.80;;;6.10;;
59105;SDS011;44891;50.204;8.132;2022-07-11T04:25:09;6.72;;;5.85;;
59105;SDS011;44891;50.204;8.132;2022-07-11T04:29:11;7.43;;;6.10;;
59105;SDS011;44891;50.204;8.132;2022-07-11T04:33:13;6.93;;;5.90;;
59105;SDS011;44891;50.204;8.132;2022-07-11T04:37:15;6.20;;;5.60;;
59105;SDS011;44891;50.204;8.132;2022-07-11T04:41:19;7.45;;;5.95;;
59105;SDS011;44891;50.204;8.132;2022-07-11T04:45:21;6.13;;;5.53;;
59105;SDS011;44891;50.204;8.132;2022-07-11T04:49:23;8.07;;;5.82;;
59105;SDS011;44891;50.204;8.132;2022-07-11T04:53:26;6.40;;;5.80;;
59105;SDS011;44891;50.204;8.132;2022-07-11T04:57:29;6.05;;;5.47;;
59105;SDS011;44891;50.204;8.132;2022-07-11T05:01:31;7.32;;;5.32;;
59105;SDS011;44891;50.204;8.132;2022-07-11T05:05:33;6.53;;;5.38;;
59105;SDS011;44891;50.204;8.132;2022-07-11T05:09:35;5.88;;;5.18;;
59105;SDS011;44891;50.204;8.132;2022-07-11T05:13:39;5.75;;;5.25;;
59105;SDS011;44891;50.204;8.132;2022-07-11T05:17:41;6.40;;;5.20;;
59105;SDS011;44891;50.204;8.132;2022-07-11T05:21:43;6.05;;;4.75;;
59105;SDS011;44891;50.204;8.132;2022-07-11T05:25:45;5.70;;;4.57;;
59105;SDS011;44891;50.204;8.132;2022-07-11T05:29:49;7.72;;;4.97;;
59105;SDS011;44891;50.204;8.132;2022-07-11T05:33:51;6.45;;;5.70;;
59105;SDS011;44891;50.204;8.132;2022-07-11T05:37:53;8.60;;;7.18;;
59105;SDS011;44891;50.204;8.132;2022-07-11T05:41:55;5.28;;;4.72;;
59105;SDS011;44891;50.204;8.132;2022-07-11T05:45:58;5.53;;;4.65;;
59105;SDS011;44891;50.204;8.132;2022-07-11T05:50:00;8.50;;;5.20;;
59105;SDS011;44891;50.204;8.132;2022-07-11T05:54:03;8.82;;;6.40;;
59105;SDS011;44891;50.204;8.132;2022-07-11T05:58:05;9.80;;;7.30;;
59105;SDS011;44891;50.204;8.132;2022-07-11T06:02:08;9.70;;;6.05;;
59105;SDS011;44891;50.204;8.132;2022-07-11T06:06:10;7.13;;;5.43;;
59105;SDS011;44891;50.204;8.132;2022-07-11T06:10:12;7.30;;;5.45;;
59105;SDS011;44891;50.204;8.132;2022-07-11T06:14:15;7.65;;;5.15;;
59105;SDS011;44891;50.204;8.132;2022-07-11T06:18:19;7.57;;;5.75;;
59105;SDS011;44891;50.204;8.132;2022-07-11T06:22:21;8.35;;;5.90;;
59105;SDS011;44891;50.204;8.132;2022-07-11T06:26:23;8.57;;;5.57;;
59105;SDS011;44891;50.204;8.132;2022-07-11T06:30:25;7.13;;;5.80;;
59105;SDS011;44891;50.204;8.132;2022-07-11T06:34:29;7.70;;;5.05;;
59105;SDS011;44891;50.204;8.132;2022-07-11T06:38:33;7.47;;;5.65;;
59105;SDS011;44891;50.204;8.132;2022-07-11T06:42:35;9.63;;;6.30;;
59105;SDS011;44891;50.204;8.132;2022-07-11T06:46:41;10.68;;;6.05;;
59105;SDS011;44891;50.204;8.132;2022-07-11T06:50:44;8.32;;;5.88;;
59105;SDS011;44891;50.204;8.132;2022-07-11T06:54:46;12.35;;;8.07;;
59105;SDS011;44891;50.204;8.132;2022-07-11T06:58:48;10.38;;;7.47;;
59105;SDS011;44891;50.204;8.132;2022-07-11T07:02:50;12.68;;;7.95;;
59105;SDS011;44891;50.204;8.132;2022-07-11T07:06:54;13.50;;;8.25;;
59105;SDS011;44891;50.204;8.132;2022-07-11T07:10:56;12.10;;;8.10;;
59105;SDS011;44891;50.204;8.132;2022-07-11T07:14:59;14.02;;;8.50;;
59105;SDS011;44891;50.204;8.132;2022-07-11T07:19:02;10.52;;;7.45;;
59105;SDS011;44891;50.204;8.132;2022-07-11T07:23:05;12.23;;;8.35;;
59105;SDS011;44891;50.204;8.132;2022-07-11T07:27:07;12.07;;;7.93;;
59105;SDS011;44891;50.204;8.132;2022-07-11T07:31:09;15.57;;;9.18;;
59105;SDS011;44891;50.204;8.132;2022-07-11T07:35:12;19.33;;;9.98;;
59105;SDS011;44891;50.204;8.132;2022-07-11T07:39:16;15.82;;;10.38;;
59105;SDS011;44891;50.204;8.132;2022-07-11T07:43:18;16.45;;;9.80;;
59105;SDS011;44891;50.204;8.132;2022-07-11T07:47:20;14.15;;;8.90;;
59105;SDS011;44891;50.204;8.132;2022-07-11T07:51:22;12.02;;;8.85;;
59105;SDS011;44891;50.204;8.132;2022-07-11T07:55:25;13.27;;;9.10;;
59105;SDS011;44891;50.204;8.132;2022-07-11T07:59:27;11.48;;;8.43;;
59105;SDS011;44891;50.204;8.132;2022-07-11T08:03:29;10.77;;;7.93;;
59105;SDS011;44891;50.204;8.132;2022-07-11T08:07:32;10.77;;;7.50;;
59105;SDS011;44891;50.204;8.132;2022-07-11T08:11:35;9.30;;;7.00;;
59105;SDS011;44891;50.204;8.132;2022-07-11T08:15:38;9.98;;;6.95;;
59105;SDS011;44891;50.204;8.132;2022-07-11T08:19:40;8.82;;;6.60;;
59105;SDS011;44891;50.204;8.132;2022-07-11T08:23:42;8.27;;;6.38;;
59105;SDS011;44891;50.204;8.132;2022-07-11T08:27:45;7.63;;;5.75;;
59105;SDS011;44891;50.204;8.132;2022-07-11T08:31:47;8.55;;;6.30;;
59105;SDS011;44891;50.204;8.132;2022-07-11T08:35:49;7.65;;;5.90;;
59105;SDS011;44891;50.204;8.132;2022-07-11T08:39:51;6.55;;;5.75;;
59105;SDS011;44891;50.204;8.132;2022-07-11T08:43:54;10.80;;;5.18;;
59105;SDS011;44891;50.204;8.132;2022-07-11T08:47:57;7.65;;;5.68;;
59105;SDS011;44891;50.204;8.132;2022-07-11T08:51:59;7.35;;;5.40;;
59105;SDS011;44891;50.204;8.132;2022-07-11T08:56:04;7.40;;;5.18;;
59105;SDS011;44891;50.204;8.132;2022-07-11T09:00:12;6.38;;;4.90;;
59105;SDS011;44891;50.204;8.132;2022-07-11T09:04:15;7.55;;;5.90;;
59105;SDS011;44891;50.204;8.132;2022-07-11T09:08:17;6.18;;;5.20;;
59105;SDS011;44891;50.204;8.132;2022-07-11T09:12:22;6.88;;;5.00;;
59105;SDS011;44891;50.204;8.132;2022-07-11T09:16:25;5.05;;;4.28;;
59105;SDS011;44891;50.204;8.132;2022-07-11T09:20:29;4.80;;;4.00;;
59105;SDS011;44891;50.204;8.132;2022-07-11T09:25:12;5.18;;;4.28;;
59105;SDS011;44891;50.204;8.132;2022-07-11T09:29:31;4.75;;;4.18;;
59105;SDS011;44891;50.204;8.132;2022-07-11T09:33:34;5.25;;;4.55;;
59105;SDS011;44891;50.204;8.132;2022-07-11T09:37:41;4.88;;;4.20;;
59105;SDS011;44891;50.204;8.132;2022-07-11T09:41:44;5.35;;;4.30;;
59105;SDS011;44891;50.204;8.132;2022-07-11T09:45:48;4.78;;;4.28;;
59105;SDS011;44891;50.204;8.132;2022-07-11T09:49:51;4.82;;;4.10;;
59105;SDS011;44891;50.204;8.132;2022-07-11T09:53:55;6.45;;;4.35;;
59105;SDS011;44891;50.204;8.132;2022-07-11T09:57:58;5.15;;;4.40;;
59105;SDS011;44891;50.204;8.132;2022-07-11T10:02:01;5.38;;;4.30;;
59105;SDS011;44891;50.204;8.132;2022-07-11T10:06:05;5.97;;;4.30;;
59105;SDS011;44891;50.204;8.132;2022-07-11T10:10:07;5.40;;;4.55;;
59105;SDS011;44891;50.204;8.132;2022-07-11T10:14:10;6.40;;;4.90;;
59105;SDS011;44891;50.204;8.132;2022-07-11T10:18:14;5.18;;;4.10;;
59105;SDS011;44891;50.204;8.132;2022-07-11T10:22:29;6.65;;;4.50;;
59105;SDS011;44891;50.204;8.132;2022-07-11T10:26:39;4.57;;;4.18;;
59105;SDS011;44891;50.204;8.132;2022-07-11T10:30:48;4.83;;;4.30;;
59105;SDS011;44891;50.204;8.132;2022-07-11T10:35:04;5.15;;;4.10;;
59105;SDS011;44891;50.204;8.132;2022-07-11T10:39:18;4.53;;;4.05;;
59105;SDS011;44891;50.204;8.132;2022-07-11T10:43:32;5.65;;;5.03;;
59105;SDS011;44891;50.204;8.132;2022-07-11T10:47:40;7.45;;;4.78;;
59105;SDS011;44891;50.204;8.132;2022-07-11T10:51:46;4.72;;;4.00;;
59105;SDS011;44891;50.204;8.132;2022-07-11T10:55:58;4.75;;;4.30;;
59105;SDS011;44891;50.204;8.132;2022-07-11T11:00:10;6.18;;;4.20;;
59105;SDS011;44891;50.204;8.132;2022-07-11T11:04:40;4.65;;;4.15;;
59105;SDS011;44891;50.204;8.132;2022-07-11T11:08:44;4.93;;;4.18;;
59105;SDS011;44891;50.204;8.132;2022-07-11T11:17:33;5.22;;;3.88;;
59105;SDS011;44891;50.204;8.132;2022-07-11T11:21:36;4.82;;;3.63;;
59105;SDS011;44891;50.204;8.132;2022-07-11T11:25:38;3.28;;;2.97;;
59105;SDS011;44891;50.204;8.132;2022-07-11T11:29:41;3.60;;;3.25;;
59105;SDS011;44891;50.204;8.132;2022-07-11T11:33:44;5.78;;;4.90;;
59105;SDS011;44891;50.204;8.132;2022-07-11T11:37:48;5.22;;;4.38;;
59105;SDS011;44891;50.204;8.132;2022-07-11T11:41:50;4.82;;;4.18;;
59105;SDS011;44891;50.204;8.132;2022-07-11T11:45:54;4.45;;;4.05;;
59105;SDS011;44891;50.204;8.132;2022-07-11T11:49:56;4.22;;;3.83;;
59105;SDS011;44891;50.204;8.132;2022-07-11T11:53:59;5.25;;;4.32;;
59105;SDS011;44891;50.204;8.132;2022-07-11T11:58:03;5.75;;;4.50;;
59105;SDS011;44891;50.204;8.132;2022-07-11T12:02:06;5.80;;;4.10;;
59105;SDS011;44891;50.204;8.132;2022-07-11T12:06:09;4.80;;;4.15;;
59105;SDS011;44891;50.204;8.132;2022-07-11T12:10:13;5.95;;;4.15;;
59105;SDS011;44891;50.204;8.132;2022-07-11T12:14:16;4.13;;;3.70;;
59105;SDS011;44891;50.204;8.132;2022-07-11T12:18:19;4.40;;;4.00;;
59105;SDS011;44891;50.204;8.132;2022-07-11T12:22:21;4.38;;;3.92;;
59105;SDS011;44891;50.204;8.132;2022-07-11T12:26:23;4.78;;;3.97;;
59105;SDS011;44891;50.204;8.132;2022-07-11T12:30:25;5.30;;;3.80;;
59105;SDS011;44891;50.204;8.132;2022-07-11T12:34:42;4.05;;;3.58;;
59105;SDS011;44891;50.204;8.132;2022-07-11T12:38:49;4.32;;;3.47;;
59105;SDS011;44891;50.204;8.132;2022-07-11T12:42:52;4.18;;;3.40;;
59105;SDS011;44891;50.204;8.132;2022-07-11T12:47:02;3.40;;;3.10;;
59105;SDS011;44891;50.204;8.132;2022-07-11T12:51:06;5.00;;;3.65;;
59105;SDS011;44891;50.204;8.132;2022-07-11T12:55:08;4.65;;;3.45;;
59105;SDS011;44891;50.204;8.132;2022-07-11T12:59:17;3.90;;;3.47;;
59105;SDS011;44891;50.204;8.132;2022-07-11T13:03:27;4.63;;;3.85;;
59105;SDS011;44891;50.204;8.132;2022-07-11T13:07:31;4.70;;;3.72;;
59105;SDS011;44891;50.204;8.132;2022-07-11T13:11:57;3.85;;;3.50;;
59105;SDS011;44891;50.204;8.132;2022-07-11T13:15:59;5.03;;;4.40;;
59105;SDS011;44891;50.204;8.132;2022-07-11T13:20:01;5.65;;;4.55;;
59105;SDS011;44891;50.204;8.132;2022-07-11T13:24:05;5.65;;;5.10;;
59105;SDS011;44891;50.204;8.132;2022-07-11T13:28:07;5.70;;;4.75;;
59105;SDS011;44891;50.204;8.132;2022-07-11T13:32:11;6.07;;;4.60;;
59105;SDS011;44891;50.204;8.132;2022-07-11T13:36:13;4.40;;;4.00;;
59105;SDS011;44891;50.204;8.132;2022-07-11T13:40:17;5.18;;;3.53;;
59105;SDS011;44891;50.204;8.132;2022-07-11T13:44:21;5.35;;;4.18;;
59105;SDS011;44891;50.204;8.132;2022-07-11T13:48:23;5.18;;;3.90;;
59105;SDS011;44891;50.204;8.132;2022-07-11T13:52:25;5.18;;;4.68;;
59105;SDS011;44891;50.204;8.132;2022-07-11T13:56:29;5.20;;;4.25;;
59105;SDS011;44891;50.204;8.132;2022-07-11T14:00:31;5.60;;;4.57;;
59105;SDS011;44891;50.204;8.132;2022-07-11T14:04:34;5.47;;;4.32;;
59105;SDS011;44891;50.204;8.132;2022-07-11T14:08:36;5.90;;;5.28;;
59105;SDS011;44891;50.204;8.132;2022-07-11T14:12:39;8.32;;;5.30;;
59105;SDS011;44891;50.204;8.132;2022-07-11T14:16:42;6.68;;;4.70;;
59105;SDS011;44891;50.204;8.132;2022-07-11T14:20:44;5.07;;;4.57;;
59105;SDS011;44891;50.204;8.132;2022-07-11T14:24:46;7.07;;;5.25;;
59105;SDS011;44891;50.204;8.132;2022-07-11T14:28:50;6.82;;;5.90;;
59105;SDS011;44891;50.204;8.132;2022-07-11T14:32:52;7.35;;;5.90;;
59105;SDS011;44891;50.204;8.132;2022-07-11T14:36:54;5.85;;;5.30;;
59105;SDS011;44891;50.204;8.132;2022-07-11T14:40:56;6.10;;;5.10;;
59105;SDS011;44891;50.204;8.132;2022-07-11T14:45:00;7.80;;;5.07;;
59105;SDS011;44891;50.204;8.132;2022-07-11T14:49:02;5.57;;;4.97;;
59105;SDS011;44891;50.204;8.132;2022-07-11T14:53:06;6.20;;;5.15;;
59105;SDS011;44891;50.204;8.132;2022-07-11T14:57:08;6.82;;;5.00;;
59105;SDS011;44891;50.204;8.132;2022-07-11T15:01:12;5.10;;;4.43;;
59105;SDS011;44891;50.204;8.132;2022-07-11T15:05:14;4.50;;;3.97;;
59105;SDS011;44891;50.204;8.132;2022-07-11T15:09:16;4.25;;;3.85;;
59105;SDS011;44891;50.204;8.132;2022-07-11T15:13:50;4.25;;;3.70;;
59105;SDS011;44891;50.204;8.132;2022-07-11T15:17:54;4.85;;;3.85;;
59105;SDS011;44891;50.204;8.132;2022-07-11T15:21:56;3.72;;;3.42;;
59105;SDS011;44891;50.204;8.132;2022-07-11T15:25:58;3.60;;;3.30;;
59105;SDS011;44891;50.204;8.132;2022-07-11T15:30:01;3.33;;;3.03;;
59105;SDS011;44891;50.204;8.132;2022-07-11T15:34:04;3.47;;;3.17;;
59105;SDS011;44891;50.204;8.132;2022-07-11T15:38:07;3.92;;;3.50;;
59105;SDS011;44891;50.204;8.132;2022-07-11T15:42:09;3.53;;;3.22;;
59105;SDS011;44891;50.204;8.132;2022-07-11T15:46:12;4.18;;;3.45;;
59105;SDS011;44891;50.204;8.132;2022-07-11T15:50:16;4.05;;;3.65;;
59105;SDS011;44891;50.204;8.132;2022-07-11T15:54:20;4.40;;;4.00;;
59105;SDS011;44891;50.204;8.132;2022-07-11T15:58:22;4.65;;;3.70;;
59105;SDS011;44891;50.204;8.132;2022-07-11T16:02:27;4.07;;;3.33;;
59105;SDS011;44891;50.204;8.132;2022-07-11T16:06:30;3.88;;;3.40;;
59105;SDS011;44891;50.204;8.132;2022-07-11T16:10:32;3.63;;;3.33;;
59105;SDS011;44891;50.204;8.132;2022-07-11T16:14:35;3.35;;;3.05;;
59105;SDS011;44891;50.204;8.132;2022-07-11T16:18:37;4.22;;;3.72;;
59105;SDS011;44891;50.204;8.132;2022-07-11T16:22:41;5.70;;;4.00;;
59105;SDS011;44891;50.204;8.132;2022-07-11T16:26:43;4.22;;;3.85;;
59105;SDS011;44891;50.204;8.132;2022-07-11T16:30:45;4.93;;;4.13;;
59105;SDS011;44891;50.204;8.132;2022-07-11T16:34:47;4.93;;;4.35;;
59105;SDS011;44891;50.204;8.132;2022-07-11T16:38:50;4.50;;;4.10;;
59105;SDS011;44891;50.204;8.132;2022-07-11T16:43:07;3.70;;;2.53;;
59105;SDS011;44891;50.204;8.132;2022-07-11T16:47:21;3.15;;;2.85;;
59105;SDS011;44891;50.204;8.132;2022-07-11T16:51:23;4.43;;;2.85;;
59105;SDS011;44891;50.204;8.132;2022-07-11T16:55:27;3.15;;;2.75;;
59105;SDS011;44891;50.204;8.132;2022-07-11T16:59:29;3.38;;;3.08;;
59105;SDS011;44891;50.204;8.132;2022-07-11T17:03:31;3.20;;;2.90;;
59105;SDS011;44891;50.204;8.132;2022-07-11T17:07:33;2.88;;;2.60;;
59105;SDS011;44891;50.204;8.132;2022-07-11T17:11:37;2.42;;;2.22;;
59105;SDS011;44891;50.204;8.132;2022-07-11T17:15:39;2.83;;;2.63;;
59105;SDS011;44891;50.204;8.132;2022-07-11T17:19:41;2.90;;;2.47;;
59105;SDS011;44891;50.204;8.132;2022-07-11T17:23:43;2.80;;;2.60;;
59105;SDS011;44891;50.204;8.132;2022-07-11T17:27:47;2.75;;;2.40;;
59105;SDS011;44891;50.204;8.132;2022-07-11T17:31:49;2.67;;;2.42;;
59105;SDS011;44891;50.204;8.132;2022-07-11T17:35:51;2.25;;;2.00;;
59105;SDS011;44891;50.204;8.132;2022-07-11T17:39:54;2.13;;;1.95;;
59105;SDS011;44891;50.204;8.132;2022-07-11T17:43:57;2.17;;;1.98;;
59105;SDS011;44891;50.204;8.132;2022-07-11T17:47:59;2.33;;;1.92;;
59105;SDS011;44891;50.204;8.132;2022-07-11T17:52:01;3.88;;;2.20;;
59105;SDS011;44891;50.204;8.132;2022-07-11T17:56:04;3.92;;;2.03;;
59105;SDS011;44891;50.204;8.132;2022-07-11T18:00:09;2.85;;;2.40;;
59105;SDS011;44891;50.204;8.132;2022-07-11T18:04:13;2.92;;;2.50;;
59105;SDS011;44891;50.204;8.132;2022-07-11T18:08:15;3.70;;;2.65;;
59105;SDS011;44891;50.204;8.132;2022-07-11T18:12:18;2.70;;;2.50;;
59105;SDS011;44891;50.204;8.132;2022-07-11T18:16:25;3.67;;;2.40;;
59105;SDS011;44891;50.204;8.132;2022-07-11T18:20:27;2.83;;;2.30;;
59105;SDS011;44891;50.204;8.132;2022-07-11T18:24:29;1.75;;;1.65;;
59105;SDS011;44891;50.204;8.132;2022-07-11T18:28:34;1.80;;;1.70;;
59105;SDS011;44891;50.204;8.132;2022-07-11T18:32:37;1.88;;;1.45;;
59105;SDS011;44891;50.204;8.132;2022-07-11T18:36:40;1.65;;;1.55;;
59105;SDS011;44891;50.204;8.132;2022-07-11T18:40:42;3.47;;;1.42;;
59105;SDS011;44891;50.204;8.132;2022-07-11T18:45:02;1.77;;;1.50;;
59105;SDS011;44891;50.204;8.132;2022-07-11T18:49:06;3.42;;;1.27;;
59105;SDS011;44891;50.204;8.132;2022-07-11T18:53:08;1.40;;;1.30;;
59105;SDS011;44891;50.204;8.132;2022-07-11T18:57:10;1.80;;;1.30;;
59105;SDS011;44891;50.204;8.132;2022-07-11T19:01:12;2.00;;;1.50;;
59105;SDS011;44891;50.204;8.132;2022-07-11T19:05:15;2.33;;;1.33;;
59105;SDS011;44891;50.204;8.132;2022-07-11T19:09:18;1.42;;;1.33;;
59105;SDS011;44891;50.204;8.132;2022-07-11T19:13:20;1.02;;;1.02;;
59105;SDS011;44891;50.204;8.132;2022-07-11T19:17:22;1.50;;;1.40;;
59105;SDS011;44891;50.204;8.132;2022-07-11T19:21:25;1.70;;;1.60;;
59105;SDS011;44891;50.204;8.132;2022-07-11T19:25:27;2.15;;;1.40;;
59105;SDS011;44891;50.204;8.132;2022-07-11T19:29:30;2.10;;;1.50;;
59105;SDS011;44891;50.204;8.132;2022-07-11T19:33:32;3.55;;;3.13;;
59105;SDS011;44891;50.204;8.132;2022-07-11T19:37:35;5.20;;;3.70;;
59105;SDS011;44891;50.204;8.132;2022-07-11T19:41:37;2.90;;;1.70;;
59105;SDS011;44891;50.204;8.132;2022-07-11T19:45:39;5.22;;;2.10;;
59105;SDS011;44891;50.204;8.132;2022-07-11T19:49:41;2.92;;;1.75;;
59105;SDS011;44891;50.204;8.132;2022-07-11T19:53:45;1.80;;;1.70;;
59105;SDS011;44891;50.204;8.132;2022-07-11T19:57:47;3.17;;;1.90;;
59105;SDS011;44891;50.204;8.132;2022-07-11T20:01:48;2.47;;;1.90;;
59105;SDS011;44891;50.204;8.132;2022-07-11T20:05:50;2.00;;;1.80;;
59105;SDS011;44891;50.204;8.132;2022-07-11T20:09:54;2.83;;;1.80;;
59105;SDS011;44891;50.204;8.132;2022-07-11T20:13:56;3.42;;;1.90;;
59105;SDS011;44891;50.204;8.132;2022-07-11T20:17:58;3.67;;;1.80;;
59105;SDS011;44891;50.204;8.132;2022-07-11T20:22:00;3.17;;;1.90;;
59105;SDS011;44891;50.204;8.132;2022-07-11T20:26:03;2.72;;;1.80;;
59105;SDS011;44891;50.204;8.132;2022-07-11T20:30:06;3.40;;;2.10;;
59105;SDS011;44891;50.204;8.132;2022-07-11T20:34:09;2.78;;;2.33;;
59105;SDS011;44891;50.204;8.132;2022-07-11T20:38:11;2.95;;;2.58;;
59105;SDS011;44891;50.204;8.132;2022-07-11T20:42:14;2.35;;;2.15;;
59105;SDS011;44891;50.204;8.132;2022-07-11T20:46:16;3.17;;;2.10;;
59105;SDS011;44891;50.204;8.132;2022-07-11T20:50:18;2.65;;;1.90;;
59105;SDS011;44891;50.204;8.132;2022-07-11T20:54:20;1.83;;;1.60;;
59105;SDS011;44891;50.204;8.132;2022-07-11T20:58:24;2.70;;;2.20;;
59105;SDS011;44891;50.204;8.132;2022-07-11T21:02:27;2.45;;;1.85;;
59105;SDS011;44891;50.204;8.132;2022-07-11T21:06:29;2.42;;;2.22;;
59105;SDS011;44891;50.204;8.132;2022-07-11T21:10:31;3.55;;;2.80;;
59105;SDS011;44891;50.204;8.132;2022-07-11T21:14:35;3.08;;;2.35;;
59105;SDS011;44891;50.204;8.132;2022-07-11T21:18:37;2.28;;;2.08;;
59105;SDS011;44891;50.204;8.132;2022-07-11T21:22:39;2.17;;;1.83;;
59105;SDS011;44891;50.204;8.132;2022-07-11T21:26:41;2.17;;;1.88;;
59105;SDS011;44891;50.204;8.132;2022-07-11T21:30:44;2.75;;;2.00;;
59105;SDS011;44891;50.204;8.132;2022-07-11T21:34:47;2.22;;;2.03;;
59105;SDS011;44891;50.204;8.132;2022-07-11T21:38:49;1.92;;;1.83;;
59105;SDS011;44891;50.204;8.132;2022-07-11T21:42:51;2.75;;;2.10;;
59105;SDS011;44891;50.204;8.132;2022-07-11T21:46:54;2.25;;;2.00;;
59105;SDS011;44891;50.204;8.132;2022-07-11T21:50:56;2.83;;;2.35;;
59105;SDS011;44891;50.204;8.132;2022-07-11T21:54:58;2.85;;;2.53;;
59105;SDS011;44891;50.204;8.132;2022-07-11T21:59:00;2.67;;;2.42;;
59105;SDS011;44891;50.204;8.132;2022-07-11T22:03:04;3.05;;;2.75;;
59105;SDS011;44891;50.204;8.132;2022-07-11T22:07:06;4.00;;;2.90;;
59105;SDS011;44891;50.204;8.132;2022-07-11T22:11:08;3.92;;;3.20;;
59105;SDS011;44891;50.204;8.132;2022-07-11T22:15:11;4.50;;;3.33;;
59105;SDS011;44891;50.204;8.132;2022-07-11T22:19:14;4.35;;;3.40;;
59105;SDS011;44891;50.204;8.132;2022-07-11T22:23:16;4.75;;;3.60;;
59105;SDS011;44891;50.204;8.132;2022-07-11T22:27:18;4.00;;;3.60;;
59105;SDS011;44891;50.204;8.132;2022-07-11T22:31:20;6.00;;;4.55;;
59105;SDS011;44891;50.204;8.132;2022-07-11T22:35:24;5.68;;;4.82;;
59105;SDS011;44891;50.204;8.132;2022-07-11T22:39:26;6.40;;;5.18;;
59105;SDS011;44891;50.204;8.132;2022-07-11T22:43:28;5.95;;;5.15;;
59105;SDS011;44891;50.204;8.132;2022-07-11T22:47:30;5.68;;;5.07;;
59105;SDS011;44891;50.204;8.132;2022-07-11T22:51:33;6.72;;;5.20;;
59105;SDS011;44891;50.204;8.132;2022-07-11T22:55:35;6.03;;;5.43;;
59105;SDS011;44891;50.204;8.132;2022-07-11T22:59:37;6.95;;;5.65;;
59105;SDS011;44891;50.204;8.132;2022-07-11T23:03:39;8.50;;;6.55;;
59105;SDS011;44891;50.204;8.132;2022-07-11T23:07:43;7.55;;;6.07;;
59105;SDS011;44891;50.204;8.132;2022-07-11T23:11:45;6.90;;;6.00;;
59105;SDS011;44891;50.204;8.132;2022-07-11T23:15:47;7.35;;;6.22;;
59105;SDS011;44891;50.204;8.132;2022-07-11T23:19:49;6.72;;;5.45;;
59105;SDS011;44891;50.204;8.132;2022-07-11T23:23:53;7.38;;;5.90;;
59105;SDS011;44891;50.204;8.132;2022-07-11T23:27:55;7.93;;;6.63;;
59105;SDS011;44891;50.204;8.132;2022-07-11T23:31:57;8.25;;;6.80;;
59105;SDS011;44891;50.204;8.132;2022-07-11T23:35:59;9.82;;;7.28;;
59105;SDS011;44891;50.204;8.132;2022-07-11T23:40:02;8.10;;;6.70;;
59105;SDS011;44891;50.204;8.132;2022-07-11T23:44:05;8.30;;;6.43;;
59105;SDS011;44891;50.204;8.132;2022-07-11T23:48:07;8.38;;;6.80;;
59105;SDS011;44891;50.204;8.132;2022-07-11T23:52:09;8.00;;;7.15;;
59105;SDS011;44891;50.204;8.132;2022-07-11T23:56:13;8.98;;;7.20;;
